sensor_id;sensor_type;location;lat;lon;timestamp;pressure;altitude;pressure_sealevel;temperature;humidity
72612;BME280;60655;52.182;4.474;2023-03-13T00:00:53;100083.19;;;9.86;95.29
72612;BME280;60655;52.182;4.474;2023-03-13T00:02:54;100090.00;;;9.94;95.94
72612;BME280;60655;52.182;4.474;2023-03-13T00:04:55;100058.41;;;9.80;96.14
72612;BME280;60655;52.182;4.474;2023-03-13T00:06:57;100059.56;;;9.96;96.39
72612;BME280;60655;52.182;4.474;2023-03-13T00:08:58;100071.88;;;10.14;95.68
72612;BME280;60655;52.182;4.474;2023-03-13T00:11:08;100062.69;;;10.05;96.10
72612;BME280;60655;52.182;4.474;2023-03-13T00:13:09;100056.34;;;10.06;96.35
72612;BME280;60655;52.182;4.474;2023-03-13T00:15:10;100057.81;;;10.13;96.14
72612;BME280;60655;52.182;4.474;2023-03-13T00:17:11;100040.75;;;10.09;96.88
72612;BME280;60655;52.182;4.474;2023-03-13T00:19:14;100039.13;;;10.08;96.41
72612;BME280;60655;52.182;4.474;2023-03-13T00:21:16;100032.44;;;10.06;97.25
72612;BME280;60655;52.182;4.474;2023-03-13T00:23:17;100023.00;;;9.98;98.07
72612;BME280;60655;52.182;4.474;2023-03-13T00:25:18;100020.56;;;10.08;97.94
72612;BME280;60655;52.182;4.474;2023-03-13T00:27:19;99995.53;;;9.93;98.01
72612;BME280;60655;52.182;4.474;2023-03-13T00:29:20;100001.06;;;9.91;99.08
72612;BME280;60655;52.182;4.474;2023-03-13T00:31:27;99994.16;;;10.02;98.22
72612;BME280;60655;52.182;4.474;2023-03-13T00:33:28;99995.50;;;10.16;97.72
72612;BME280;60655;52.182;4.474;2023-03-13T00:35:29;99986.50;;;10.17;97.25
72612;BME280;60655;52.182;4.474;2023-03-13T00:37:30;99996.47;;;9.98;98.45
72612;BME280;60655;52.182;4.474;2023-03-13T00:39:32;99976.25;;;9.97;99.11
72612;BME280;60655;52.182;4.474;2023-03-13T00:41:33;99980.25;;;10.11;98.52
72612;BME280;60655;52.182;4.474;2023-03-13T00:43:35;99970.25;;;10.02;98.44
72612;BME280;60655;52.182;4.474;2023-03-13T00:45:36;99970.94;;;10.09;98.88
72612;BME280;60655;52.182;4.474;2023-03-13T00:47:37;99958.50;;;10.09;99.04
72612;BME280;60655;52.182;4.474;2023-03-13T00:49:38;99959.63;;;10.13;99.16
72612;BME280;60655;52.182;4.474;2023-03-13T00:51:39;99938.94;;;10.15;98.83
72612;BME280;60655;52.182;4.474;2023-03-13T00:53:40;99921.25;;;9.93;99.57
72612;BME280;60655;52.182;4.474;2023-03-13T00:57:55;99925.59;;;10.10;99.97
72612;BME280;60655;52.182;4.474;2023-03-13T00:59:56;99915.88;;;10.16;99.78
72612;BME280;60655;52.182;4.474;2023-03-13T01:01:57;99918.75;;;10.14;99.71
72612;BME280;60655;52.182;4.474;2023-03-13T01:04:00;99917.16;;;10.13;100.00
72612;BME280;60655;52.182;4.474;2023-03-13T01:06:04;99922.16;;;10.10;100.00
72612;BME280;60655;52.182;4.474;2023-03-13T01:08:05;99912.66;;;10.14;100.00
72612;BME280;60655;52.182;4.474;2023-03-13T01:10:06;99895.81;;;10.20;100.00
72612;BME280;60655;52.182;4.474;2023-03-13T01:12:07;99898.00;;;10.23;100.00
72612;BME280;60655;52.182;4.474;2023-03-13T01:14:12;99895.91;;;10.25;100.00
72612;BME280;60655;52.182;4.474;2023-03-13T01:16:16;99884.50;;;10.25;100.00
72612;BME280;60655;52.182;4.474;2023-03-13T01:18:17;99879.84;;;10.32;99.75
72612;BME280;60655;52.182;4.474;2023-03-13T01:20:19;99894.34;;;10.41;100.00
72612;BME280;60655;52.182;4.474;2023-03-13T01:22:19;99867.72;;;10.36;100.00
72612;BME280;60655;52.182;4.474;2023-03-13T01:24:20;99864.84;;;10.37;100.00
72612;BME280;60655;52.182;4.474;2023-03-13T01:26:41;99882.28;;;10.33;100.00
72612;BME280;60655;52.182;4.474;2023-03-13T01:28:42;99857.00;;;10.31;100.00
72612;BME280;60655;52.182;4.474;2023-03-13T01:30:43;99861.44;;;10.42;100.00
72612;BME280;60655;52.182;4.474;2023-03-13T01:32:44;99860.09;;;10.39;100.00
72612;BME280;60655;52.182;4.474;2023-03-13T01:34:45;99844.31;;;10.33;100.00
72612;BME280;60655;52.182;4.474;2023-03-13T01:36:48;99842.03;;;10.41;100.00
72612;BME280;60655;52.182;4.474;2023-03-13T01:38:54;99849.06;;;10.47;100.00
72612;BME280;60655;52.182;4.474;2023-03-13T01:40:55;99844.66;;;10.53;100.00
72612;BME280;60655;52.182;4.474;2023-03-13T01:42:58;99842.31;;;10.57;100.00
72612;BME280;60655;52.182;4.474;2023-03-13T01:44:59;99826.78;;;10.48;100.00
72612;BME280;60655;52.182;4.474;2023-03-13T01:47:00;99838.38;;;10.59;100.00
72612;BME280;60655;52.182;4.474;2023-03-13T01:53:35;99809.50;;;10.63;100.00
72612;BME280;60655;52.182;4.474;2023-03-13T01:55:37;99798.88;;;10.63;100.00
72612;BME280;60655;52.182;4.474;2023-03-13T01:57:41;99795.00;;;10.54;100.00
72612;BME280;60655;52.182;4.474;2023-03-13T01:59:57;99808.38;;;10.59;100.00
72612;BME280;60655;52.182;4.474;2023-03-13T02:02:01;99790.34;;;10.61;100.00
72612;BME280;60655;52.182;4.474;2023-03-13T02:04:03;99784.38;;;10.70;100.00
72612;BME280;60655;52.182;4.474;2023-03-13T02:06:06;99787.78;;;10.66;100.00
72612;BME280;60655;52.182;4.474;2023-03-13T02:08:14;99786.78;;;10.72;100.00
72612;BME280;60655;52.182;4.474;2023-03-13T02:10:18;99777.94;;;10.66;100.00
72612;BME280;60655;52.182;4.474;2023-03-13T02:12:33;99772.06;;;10.81;100.00
72612;BME280;60655;52.182;4.474;2023-03-13T02:14:36;99759.00;;;10.79;100.00
72612;BME280;60655;52.182;4.474;2023-03-13T02:16:38;99758.44;;;10.77;100.00
72612;BME280;60655;52.182;4.474;2023-03-13T02:18:39;99759.56;;;10.81;100.00
72612;BME280;60655;52.182;4.474;2023-03-13T02:20:40;99754.81;;;10.83;100.00
72612;BME280;60655;52.182;4.474;2023-03-13T02:27:23;99756.06;;;10.98;100.00
72612;BME280;60655;52.182;4.474;2023-03-13T02:29:24;99750.50;;;10.99;100.00
72612;BME280;60655;52.182;4.474;2023-03-13T02:31:25;99747.63;;;11.01;100.00
72612;BME280;60655;52.182;4.474;2023-03-13T02:33:29;99733.28;;;11.02;100.00
72612;BME280;60655;52.182;4.474;2023-03-13T02:35:32;99750.81;;;11.03;100.00
72612;BME280;60655;52.182;4.474;2023-03-13T02:37:34;99749.22;;;11.02;100.00
72612;BME280;60655;52.182;4.474;2023-03-13T02:39:38;99728.53;;;11.04;100.00
72612;BME280;60655;52.182;4.474;2023-03-13T02:41:42;99753.06;;;11.11;100.00
72612;BME280;60655;52.182;4.474;2023-03-13T02:43:44;99740.91;;;11.15;100.00
72612;BME280;60655;52.182;4.474;2023-03-13T02:46:10;99733.56;;;11.22;100.00
72612;BME280;60655;52.182;4.474;2023-03-13T02:48:11;99729.59;;;11.25;100.00
72612;BME280;60655;52.182;4.474;2023-03-13T02:50:12;99727.63;;;11.15;100.00
72612;BME280;60655;52.182;4.474;2023-03-13T02:52:22;99736.13;;;11.39;100.00
72612;BME280;60655;52.182;4.474;2023-03-13T02:54:29;99729.94;;;11.33;100.00
72612;BME280;60655;52.182;4.474;2023-03-13T02:56:33;99712.81;;;11.46;100.00
72612;BME280;60655;52.182;4.474;2023-03-13T02:58:40;99703.78;;;11.47;100.00
72612;BME280;60655;52.182;4.474;2023-03-13T03:00:41;99720.09;;;11.56;100.00
72612;BME280;60655;52.182;4.474;2023-03-13T03:02:43;99705.81;;;11.62;100.00
72612;BME280;60655;52.182;4.474;2023-03-13T03:04:44;99707.47;;;11.68;100.00
72612;BME280;60655;52.182;4.474;2023-03-13T03:06:45;99706.91;;;11.66;100.00
72612;BME280;60655;52.182;4.474;2023-03-13T03:08:46;99697.56;;;11.63;100.00
72612;BME280;60655;52.182;4.474;2023-03-13T03:10:47;99702.75;;;11.75;100.00
72612;BME280;60655;52.182;4.474;2023-03-13T03:12:48;99693.38;;;11.67;100.00
72612;BME280;60655;52.182;4.474;2023-03-13T03:14:49;99705.19;;;11.76;100.00
72612;BME280;60655;52.182;4.474;2023-03-13T03:16:50;99673.03;;;11.78;99.40
72612;BME280;60655;52.182;4.474;2023-03-13T03:18:51;99690.09;;;11.82;99.75
72612;BME280;60655;52.182;4.474;2023-03-13T03:20:52;99688.19;;;11.77;99.52
72612;BME280;60655;52.182;4.474;2023-03-13T03:22:54;99699.38;;;11.79;99.80
72612;BME280;60655;52.182;4.474;2023-03-13T03:24:55;99698.16;;;11.92;99.25
72612;BME280;60655;52.182;4.474;2023-03-13T03:26:56;99696.53;;;11.91;99.11
72612;BME280;60655;52.182;4.474;2023-03-13T03:28:56;99678.66;;;11.87;99.39
72612;BME280;60655;52.182;4.474;2023-03-13T03:31:03;99691.69;;;11.83;99.50
72612;BME280;60655;52.182;4.474;2023-03-13T03:33:04;99692.28;;;11.90;99.38
72612;BME280;60655;52.182;4.474;2023-03-13T03:35:05;99672.28;;;11.88;99.88
72612;BME280;60655;52.182;4.474;2023-03-13T03:37:06;99680.56;;;11.91;99.50
72612;BME280;60655;52.182;4.474;2023-03-13T03:39:07;99670.97;;;11.90;99.43
72612;BME280;60655;52.182;4.474;2023-03-13T03:41:09;99672.34;;;11.93;99.79
72612;BME280;60655;52.182;4.474;2023-03-13T03:43:11;99677.66;;;11.93;100.00
72612;BME280;60655;52.182;4.474;2023-03-13T03:45:12;99681.06;;;11.88;100.00
72612;BME280;60655;52.182;4.474;2023-03-13T03:47:12;99669.44;;;11.94;100.00
72612;BME280;60655;52.182;4.474;2023-03-13T03:49:13;99667.88;;;11.98;99.82
72612;BME280;60655;52.182;4.474;2023-03-13T03:51:14;99667.06;;;11.98;99.85
72612;BME280;60655;52.182;4.474;2023-03-13T03:53:15;99676.41;;;12.00;99.59
72612;BME280;60655;52.182;4.474;2023-03-13T03:55:17;99675.91;;;12.03;99.24
72612;BME280;60655;52.182;4.474;2023-03-13T03:57:18;99679.66;;;12.07;99.48
72612;BME280;60655;52.182;4.474;2023-03-13T03:59:20;99671.69;;;12.07;99.73
72612;BME280;60655;52.182;4.474;2023-03-13T04:01:21;99678.06;;;12.06;99.57
72612;BME280;60655;52.182;4.474;2023-03-13T04:03:23;99674.28;;;12.02;99.86
72612;BME280;60655;52.182;4.474;2023-03-13T04:05:24;99655.63;;;11.97;99.55
72612;BME280;60655;52.182;4.474;2023-03-13T04:07:26;99658.56;;;12.01;100.00
72612;BME280;60655;52.182;4.474;2023-03-13T04:09:27;99658.81;;;11.99;100.00
72612;BME280;60655;52.182;4.474;2023-03-13T04:11:28;99663.09;;;12.00;100.00
72612;BME280;60655;52.182;4.474;2023-03-13T04:13:29;99644.16;;;11.97;100.00
72612;BME280;60655;52.182;4.474;2023-03-13T04:15:30;99656.22;;;12.04;100.00
72612;BME280;60655;52.182;4.474;2023-03-13T04:17:31;99656.41;;;11.98;100.00
72612;BME280;60655;52.182;4.474;2023-03-13T04:19:33;99670.78;;;11.97;100.00
72612;BME280;60655;52.182;4.474;2023-03-13T04:21:34;99638.28;;;11.95;100.00
72612;BME280;60655;52.182;4.474;2023-03-13T04:23:35;99652.25;;;12.07;99.71
72612;BME280;60655;52.182;4.474;2023-03-13T04:25:36;99622.72;;;12.08;99.56
72612;BME280;60655;52.182;4.474;2023-03-13T04:27:37;99639.22;;;12.10;99.12
72612;BME280;60655;52.182;4.474;2023-03-13T04:29:38;99636.31;;;12.12;99.00
72612;BME280;60655;52.182;4.474;2023-03-13T04:31:39;99635.50;;;12.11;98.27
72612;BME280;60655;52.182;4.474;2023-03-13T04:33:40;99622.72;;;12.13;97.64
72612;BME280;60655;52.182;4.474;2023-03-13T04:35:40;99617.69;;;12.12;97.65
72612;BME280;60655;52.182;4.474;2023-03-13T04:37:41;99637.16;;;12.23;97.22
72612;BME280;60655;52.182;4.474;2023-03-13T04:39:42;99605.22;;;12.23;96.02
72612;BME280;60655;52.182;4.474;2023-03-13T04:41:43;99622.59;;;12.30;95.95
72612;BME280;60655;52.182;4.474;2023-03-13T04:43:44;99614.09;;;12.33;95.54
72612;BME280;60655;52.182;4.474;2023-03-13T04:45:45;99610.66;;;12.38;95.34
72612;BME280;60655;52.182;4.474;2023-03-13T04:47:46;99610.66;;;12.38;95.22
72612;BME280;60655;52.182;4.474;2023-03-13T04:49:47;99613.06;;;12.39;94.65
72612;BME280;60655;52.182;4.474;2023-03-13T04:51:48;99623.16;;;12.37;94.82
72612;BME280;60655;52.182;4.474;2023-03-13T04:53:49;99603.19;;;12.35;94.51
72612;BME280;60655;52.182;4.474;2023-03-13T04:55:50;99602.91;;;12.36;94.72
72612;BME280;60655;52.182;4.474;2023-03-13T04:57:51;99602.13;;;12.36;94.33
72612;BME280;60655;52.182;4.474;2023-03-13T04:59:52;99606.34;;;12.32;94.25
72612;BME280;60655;52.182;4.474;2023-03-13T05:01:53;99597.84;;;12.35;94.28
72612;BME280;60655;52.182;4.474;2023-03-13T05:03:54;99620.81;;;12.46;93.19
72612;BME280;60655;52.182;4.474;2023-03-13T05:05:55;99600.53;;;12.40;92.98
72612;BME280;60655;52.182;4.474;2023-03-13T05:07:56;99599.50;;;12.46;92.40
72612;BME280;60655;52.182;4.474;2023-03-13T05:09:57;99588.88;;;12.51;91.51
72612;BME280;60655;52.182;4.474;2023-03-13T05:11:58;99572.06;;;12.45;91.83
72612;BME280;60655;52.182;4.474;2023-03-13T05:13:59;99576.56;;;12.45;91.00
72612;BME280;60655;52.182;4.474;2023-03-13T05:16:00;99572.63;;;12.52;90.50
72612;BME280;60655;52.182;4.474;2023-03-13T05:18:01;99601.59;;;12.44;90.13
72612;BME280;60655;52.182;4.474;2023-03-13T05:20:02;99571.50;;;12.43;89.61
72612;BME280;60655;52.182;4.474;2023-03-13T05:22:05;99563.22;;;12.35;89.60
72612;BME280;60655;52.182;4.474;2023-03-13T05:24:06;99555.81;;;12.47;88.77
72612;BME280;60655;52.182;4.474;2023-03-13T05:26:07;99567.28;;;12.47;87.79
72612;BME280;60655;52.182;4.474;2023-03-13T05:28:08;99571.00;;;12.46;87.49
72612;BME280;60655;52.182;4.474;2023-03-13T05:30:09;99564.38;;;12.54;86.96
72612;BME280;60655;52.182;4.474;2023-03-13T05:32:10;99563.56;;;12.54;86.62
72612;BME280;60655;52.182;4.474;2023-03-13T05:34:11;99549.47;;;12.58;85.84
72612;BME280;60655;52.182;4.474;2023-03-13T05:36:12;99546.88;;;12.68;84.90
72612;BME280;60655;52.182;4.474;2023-03-13T05:38:13;99552.16;;;12.63;85.49
72612;BME280;60655;52.182;4.474;2023-03-13T05:40:14;99549.53;;;12.68;85.86
72612;BME280;60655;52.182;4.474;2023-03-13T05:42:15;99547.63;;;12.64;85.50
72612;BME280;60655;52.182;4.474;2023-03-13T05:44:16;99548.72;;;12.73;85.05
72612;BME280;60655;52.182;4.474;2023-03-13T05:46:17;99531.13;;;12.72;84.37
72612;BME280;60655;52.182;4.474;2023-03-13T05:48:18;99525.53;;;12.73;84.40
72612;BME280;60655;52.182;4.474;2023-03-13T05:50:19;99550.06;;;12.75;84.59
72612;BME280;60655;52.182;4.474;2023-03-13T05:52:20;99545.81;;;12.79;84.76
72612;BME280;60655;52.182;4.474;2023-03-13T05:54:21;99528.47;;;12.72;84.20
72612;BME280;60655;52.182;4.474;2023-03-13T05:56:22;99534.09;;;12.70;85.29
72612;BME280;60655;52.182;4.474;2023-03-13T05:58:23;99536.19;;;12.63;84.98
72612;BME280;60655;52.182;4.474;2023-03-13T06:00:25;99528.19;;;12.63;84.86
72612;BME280;60655;52.182;4.474;2023-03-13T06:02:26;99540.72;;;12.73;85.22
72612;BME280;60655;52.182;4.474;2023-03-13T06:04:27;99543.66;;;12.71;85.45
72612;BME280;60655;52.182;4.474;2023-03-13T06:06:28;99573.78;;;12.67;86.39
72612;BME280;60655;52.182;4.474;2023-03-13T06:08:29;99559.09;;;12.64;87.01
72612;BME280;60655;52.182;4.474;2023-03-13T06:10:32;99559.03;;;12.49;87.97
72612;BME280;60655;52.182;4.474;2023-03-13T06:12:33;99553.16;;;12.47;88.13
72612;BME280;60655;52.182;4.474;2023-03-13T06:14:35;99546.13;;;12.26;89.44
72612;BME280;60655;52.182;4.474;2023-03-13T06:16:37;99563.78;;;12.37;90.73
72612;BME280;60655;52.182;4.474;2023-03-13T06:18:38;99554.63;;;12.23;92.18
72612;BME280;60655;52.182;4.474;2023-03-13T06:20:39;99562.06;;;12.21;93.14
72612;BME280;60655;52.182;4.474;2023-03-13T06:22:40;99555.09;;;12.14;93.82
72612;BME280;60655;52.182;4.474;2023-03-13T06:24:41;99568.13;;;12.06;94.61
72612;BME280;60655;52.182;4.474;2023-03-13T06:26:47;99542.22;;;11.96;95.53
72612;BME280;60655;52.182;4.474;2023-03-13T06:28:48;99582.53;;;12.10;95.38
72612;BME280;60655;52.182;4.474;2023-03-13T06:30:49;99573.75;;;12.14;95.23
72612;BME280;60655;52.182;4.474;2023-03-13T06:32:50;99582.81;;;12.18;94.84
72612;BME280;60655;52.182;4.474;2023-03-13T06:34:51;99554.03;;;12.15;94.87
72612;BME280;60655;52.182;4.474;2023-03-13T06:36:52;99551.69;;;12.19;95.01
72612;BME280;60655;52.182;4.474;2023-03-13T06:38:53;99553.50;;;12.13;95.11
72612;BME280;60655;52.182;4.474;2023-03-13T06:40:54;99555.66;;;12.11;95.01
72612;BME280;60655;52.182;4.474;2023-03-13T06:42:55;99548.69;;;12.05;95.90
72612;BME280;60655;52.182;4.474;2023-03-13T06:44:56;99567.09;;;12.12;96.36
72612;BME280;60655;52.182;4.474;2023-03-13T06:46:57;99554.34;;;12.19;96.11
72612;BME280;60655;52.182;4.474;2023-03-13T06:48:58;99535.34;;;12.00;96.85
72612;BME280;60655;52.182;4.474;2023-03-13T06:51:00;99557.47;;;12.06;96.66
72612;BME280;60655;52.182;4.474;2023-03-13T06:53:01;99555.88;;;12.05;96.80
72612;BME280;60655;52.182;4.474;2023-03-13T06:55:03;99577.97;;;12.05;97.03
72612;BME280;60655;52.182;4.474;2023-03-13T06:57:04;99560.16;;;12.11;96.47
72612;BME280;60655;52.182;4.474;2023-03-13T06:59:05;99560.69;;;12.13;96.15
72612;BME280;60655;52.182;4.474;2023-03-13T07:01:10;99556.19;;;12.18;95.39
72612;BME280;60655;52.182;4.474;2023-03-13T07:03:11;99565.56;;;12.26;94.72
72612;BME280;60655;52.182;4.474;2023-03-13T07:05:13;99535.91;;;12.07;94.29
72612;BME280;60655;52.182;4.474;2023-03-13T07:07:14;99559.13;;;12.17;95.16
72612;BME280;60655;52.182;4.474;2023-03-13T07:09:15;99573.25;;;12.23;95.56
72612;BME280;60655;52.182;4.474;2023-03-13T07:11:19;99566.28;;;12.11;96.47
72612;BME280;60655;52.182;4.474;2023-03-13T07:13:20;99543.41;;;12.15;97.19
72612;BME280;60655;52.182;4.474;2023-03-13T07:15:22;99551.38;;;12.15;96.36
72612;BME280;60655;52.182;4.474;2023-03-13T07:17:22;99560.69;;;12.13;96.00
72612;BME280;60655;52.182;4.474;2023-03-13T07:19:24;99547.13;;;12.09;96.12
72612;BME280;60655;52.182;4.474;2023-03-13T07:21:27;99545.81;;;12.12;95.81
72612;BME280;60655;52.182;4.474;2023-03-13T07:23:28;99563.63;;;12.11;95.93
72612;BME280;60655;52.182;4.474;2023-03-13T07:25:29;99577.75;;;12.17;95.57
72612;BME280;60655;52.182;4.474;2023-03-13T07:27:30;99579.66;;;12.22;95.02
72612;BME280;60655;52.182;4.474;2023-03-13T07:29:31;99574.06;;;12.23;92.95
72612;BME280;60655;52.182;4.474;2023-03-13T07:31:32;99565.53;;;12.21;92.15
72612;BME280;60655;52.182;4.474;2023-03-13T07:33:33;99574.63;;;12.25;91.33
72612;BME280;60655;52.182;4.474;2023-03-13T07:35:34;99550.69;;;12.30;91.36
72612;BME280;60655;52.182;4.474;2023-03-13T07:37:35;99558.66;;;12.30;91.31
72612;BME280;60655;52.182;4.474;2023-03-13T07:39:36;99552.03;;;12.33;91.46
72612;BME280;60655;52.182;4.474;2023-03-13T07:41:38;99557.59;;;12.26;91.02
72612;BME280;60655;52.182;4.474;2023-03-13T07:43:39;99543.81;;;12.39;90.41
72612;BME280;60655;52.182;4.474;2023-03-13T07:45:49;99543.56;;;12.46;90.23
72612;BME280;60655;52.182;4.474;2023-03-13T07:47:50;99551.81;;;12.39;90.10
72612;BME280;60655;52.182;4.474;2023-03-13T07:49:51;99557.13;;;12.44;90.08
72612;BME280;60655;52.182;4.474;2023-03-13T07:51:53;99547.59;;;12.54;89.67
72612;BME280;60655;52.182;4.474;2023-03-13T07:53:54;99522.28;;;12.51;90.10
72612;BME280;60655;52.182;4.474;2023-03-13T07:55:58;99546.00;;;12.52;89.82
72612;BME280;60655;52.182;4.474;2023-03-13T07:57:59;99527.56;;;12.46;89.92
72612;BME280;60655;52.182;4.474;2023-03-13T08:00:00;99528.13;;;12.48;90.48
72612;BME280;60655;52.182;4.474;2023-03-13T08:02:08;99551.34;;;12.58;89.80
72612;BME280;60655;52.182;4.474;2023-03-13T08:04:12;99553.75;;;12.59;89.76
72612;BME280;60655;52.182;4.474;2023-03-13T08:06:15;99520.19;;;12.58;89.29
72612;BME280;60655;52.182;4.474;2023-03-13T08:08:16;99503.66;;;12.61;88.67
72612;BME280;60655;52.182;4.474;2023-03-13T08:10:17;99501.81;;;12.67;88.42
72612;BME280;60655;52.182;4.474;2023-03-13T08:12:18;99512.47;;;12.62;88.49
72612;BME280;60655;52.182;4.474;2023-03-13T08:14:19;99525.28;;;12.75;88.24
72612;BME280;60655;52.182;4.474;2023-03-13T08:16:29;99510.09;;;12.75;87.28
72612;BME280;60655;52.182;4.474;2023-03-13T08:18:30;99485.06;;;12.87;86.89
72612;BME280;60655;52.182;4.474;2023-03-13T08:20:34;99500.78;;;12.83;86.97
72612;BME280;60655;52.182;4.474;2023-03-13T08:22:37;99508.25;;;12.86;86.62
72612;BME280;60655;52.182;4.474;2023-03-13T08:24:38;99511.75;;;12.92;86.24
72612;BME280;60655;52.182;4.474;2023-03-13T08:26:40;99516.28;;;12.91;86.00
72612;BME280;60655;52.182;4.474;2023-03-13T08:28:44;99488.00;;;12.85;86.23
72612;BME280;60655;52.182;4.474;2023-03-13T08:30:45;99504.28;;;12.94;85.26
72612;BME280;60655;52.182;4.474;2023-03-13T08:32:46;99498.41;;;12.92;85.49
72612;BME280;60655;52.182;4.474;2023-03-13T08:34:47;99487.72;;;12.76;83.94
72612;BME280;60655;52.182;4.474;2023-03-13T08:36:48;99488.81;;;12.85;83.52
72612;BME280;60655;52.182;4.474;2023-03-13T08:38:50;99504.81;;;13.01;83.14
72612;BME280;60655;52.182;4.474;2023-03-13T08:40:55;99507.22;;;12.92;83.10
72612;BME280;60655;52.182;4.474;2023-03-13T08:42:56;99517.34;;;13.00;83.90
72612;BME280;60655;52.182;4.474;2023-03-13T08:45:03;99490.19;;;12.98;82.75
72612;BME280;60655;52.182;4.474;2023-03-13T08:47:07;99498.97;;;13.09;82.39
72612;BME280;60655;52.182;4.474;2023-03-13T08:49:09;99499.03;;;13.19;79.53
72612;BME280;60655;52.182;4.474;2023-03-13T08:51:12;99490.75;;;13.15;80.00
72612;BME280;60655;52.182;4.474;2023-03-13T08:53:14;99491.00;;;13.29;78.06
72612;BME280;60655;52.182;4.474;2023-03-13T08:55:15;99486.22;;;13.26;77.41
72612;BME280;60655;52.182;4.474;2023-03-13T08:57:16;99482.19;;;13.29;76.07
72612;BME280;60655;52.182;4.474;2023-03-13T08:59:17;99475.00;;;13.34;75.73
72612;BME280;60655;52.182;4.474;2023-03-13T09:01:19;99485.16;;;13.37;74.35
72612;BME280;60655;52.182;4.474;2023-03-13T09:03:21;99464.59;;;13.33;75.72
72612;BME280;60655;52.182;4.474;2023-03-13T09:05:21;99486.75;;;13.43;75.60
72612;BME280;60655;52.182;4.474;2023-03-13T09:07:22;99468.34;;;13.42;75.43
72612;BME280;60655;52.182;4.474;2023-03-13T09:09:24;99467.81;;;13.50;75.68
72612;BME280;60655;52.182;4.474;2023-03-13T09:11:25;99471.28;;;13.50;75.08
72612;BME280;60655;52.182;4.474;2023-03-13T09:13:28;99483.56;;;13.51;75.10
72612;BME280;60655;52.182;4.474;2023-03-13T09:15:29;99468.63;;;13.50;75.43
72612;BME280;60655;52.182;4.474;2023-03-13T09:17:32;99477.41;;;13.56;75.53
72612;BME280;60655;52.182;4.474;2023-03-13T09:19:33;99473.41;;;13.48;74.58
72612;BME280;60655;52.182;4.474;2023-03-13T09:21:34;99443.00;;;13.39;74.09
72612;BME280;60655;52.182;4.474;2023-03-13T09:23:36;99462.47;;;13.35;75.18
72612;BME280;60655;52.182;4.474;2023-03-13T09:25:37;99461.13;;;13.52;73.61
72612;BME280;60655;52.182;4.474;2023-03-13T09:27:39;99408.59;;;13.48;74.46
72612;BME280;60655;52.182;4.474;2023-03-13T09:29:40;99427.47;;;13.62;74.97
72612;BME280;60655;52.182;4.474;2023-03-13T09:31:42;99430.41;;;13.65;75.48
72612;BME280;60655;52.182;4.474;2023-03-13T09:33:44;99444.03;;;13.59;76.80
72612;BME280;60655;52.182;4.474;2023-03-13T09:35:47;99414.19;;;13.46;76.90
72612;BME280;60655;52.182;4.474;2023-03-13T09:37:50;99434.69;;;13.66;76.56
72612;BME280;60655;52.182;4.474;2023-03-13T09:39:51;99437.09;;;13.68;76.86
72612;BME280;60655;52.182;4.474;2023-03-13T09:46:12;99418.13;;;13.69;75.99
72612;BME280;60655;52.182;4.474;2023-03-13T09:48:28;99435.47;;;13.72;76.01
72612;BME280;60655;52.182;4.474;2023-03-13T09:50:36;99408.25;;;13.70;75.75
72612;BME280;60655;52.182;4.474;2023-03-13T09:52:41;99413.03;;;13.78;75.99
72612;BME280;60655;52.182;4.474;2023-03-13T09:55:09;99419.19;;;13.73;73.28
72612;BME280;60655;52.182;4.474;2023-03-13T09:59:41;99408.22;;;13.85;74.01
72612;BME280;60655;52.182;4.474;2023-03-13T10:01:48;99405.59;;;13.70;74.90
72612;BME280;60655;52.182;4.474;2023-03-13T10:04:51;99419.47;;;13.77;75.46
72612;BME280;60655;52.182;4.474;2023-03-13T10:06:35;99397.84;;;13.68;75.55
72612;BME280;60655;52.182;4.474;2023-03-13T10:08:39;99408.78;;;13.72;75.20
72612;BME280;60655;52.182;4.474;2023-03-13T10:10:54;99402.91;;;13.70;75.32
72612;BME280;60655;52.182;4.474;2023-03-13T10:13:07;99400.22;;;13.85;74.61
72612;BME280;60655;52.182;4.474;2023-03-13T10:15:38;99399.41;;;13.84;72.73
72612;BME280;60655;52.182;4.474;2023-03-13T10:17:42;99395.63;;;13.96;73.09
72612;BME280;60655;52.182;4.474;2023-03-13T10:19:44;99386.50;;;14.12;72.07
72612;BME280;60655;52.182;4.474;2023-03-13T10:21:51;99415.00;;;14.22;71.79
72612;BME280;60655;52.182;4.474;2023-03-13T10:24:10;99416.06;;;14.26;71.22
72612;BME280;60655;52.182;4.474;2023-03-13T10:26:24;99429.38;;;14.31;70.67
72612;BME280;60655;52.182;4.474;2023-03-13T10:28:27;99417.66;;;14.27;69.64
72612;BME280;60655;52.182;4.474;2023-03-13T10:30:31;99410.72;;;14.26;67.70
72612;BME280;60655;52.182;4.474;2023-03-13T10:32:32;99400.84;;;14.21;69.32
72612;BME280;60655;52.182;4.474;2023-03-13T10:34:55;99402.41;;;14.32;68.13
72612;BME280;60655;52.182;4.474;2023-03-13T10:36:58;99376.78;;;14.26;69.58
72612;BME280;60655;52.182;4.474;2023-03-13T10:39:00;99383.44;;;14.34;68.95
72612;BME280;60655;52.182;4.474;2023-03-13T10:41:09;99408.28;;;14.29;70.42
72612;BME280;60655;52.182;4.474;2023-03-13T10:43:19;99381.06;;;14.27;69.93
72612;BME280;60655;52.182;4.474;2023-03-13T10:45:21;99390.78;;;14.57;68.46
72612;BME280;60655;52.182;4.474;2023-03-13T10:47:22;99395.66;;;14.45;68.71
72612;BME280;60655;52.182;4.474;2023-03-13T10:49:23;99370.09;;;14.29;69.15
72612;BME280;60655;52.182;4.474;2023-03-13T10:51:39;99390.38;;;14.35;68.99
72612;BME280;60655;52.182;4.474;2023-03-13T10:53:40;99405.84;;;14.43;68.80
72612;BME280;60655;52.182;4.474;2023-03-13T10:55:43;99381.50;;;14.44;68.29
72612;BME280;60655;52.182;4.474;2023-03-13T10:59:54;99387.06;;;14.53;65.98
72612;BME280;60655;52.182;4.474;2023-03-13T11:01:59;99403.13;;;14.48;66.97
72612;BME280;60655;52.182;4.474;2023-03-13T11:04:18;99400.91;;;14.65;66.15
72612;BME280;60655;52.182;4.474;2023-03-13T11:06:24;99391.00;;;14.66;64.70
72612;BME280;60655;52.182;4.474;2023-03-13T11:08:33;99407.91;;;14.56;64.46